sensor_id;sensor_type;location;lat;lon;timestamp;temperature;humidity
6256;DHT22;3161;48.794;9.784;2022-07-29T00:01:22;19.20;99.90
6256;DHT22;3161;48.794;9.784;2022-07-29T00:03:50;19.20;99.90
6256;DHT22;3161;48.794;9.784;2022-07-29T00:06:17;19.20;99.90
6256;DHT22;3161;48.794;9.784;2022-07-29T00:08:45;19.10;99.90
6256;DHT22;3161;48.794;9.784;2022-07-29T00:11:13;19.00;99.90
6256;DHT22;3161;48.794;9.784;2022-07-29T00:13:40;19.00;99.90
6256;DHT22;3161;48.794;9.784;2022-07-29T00:16:08;19.00;99.90
6256;DHT22;3161;48.794;9.784;2022-07-29T00:18:35;18.90;99.90
6256;DHT22;3161;48.794;9.784;2022-07-29T00:21:03;19.00;99.90
6256;DHT22;3161;48.794;9.784;2022-07-29T00:23:30;19.00;99.90
6256;DHT22;3161;48.794;9.784;2022-07-29T00:25:58;19.00;99.90
6256;DHT22;3161;48.794;9.784;2022-07-29T00:28:25;19.00;99.90
6256;DHT22;3161;48.794;9.784;2022-07-29T00:30:53;19.00;99.90
6256;DHT22;3161;48.794;9.784;2022-07-29T00:33:21;18.90;99.90
6256;DHT22;3161;48.794;9.784;2022-07-29T00:35:49;18.90;99.90
6256;DHT22;3161;48.794;9.784;2022-07-29T00:38:19;18.90;99.90
6256;DHT22;3161;48.794;9.784;2022-07-29T00:40:47;18.90;99.90
6256;DHT22;3161;48.794;9.784;2022-07-29T00:43:15;19.00;99.90
6256;DHT22;3161;48.794;9.784;2022-07-29T00:45:44;19.00;99.90
6256;DHT22;3161;48.794;9.784;2022-07-29T00:48:11;19.00;99.90
6256;DHT22;3161;48.794;9.784;2022-07-29T00:50:39;19.00;99.90
6256;DHT22;3161;48.794;9.784;2022-07-29T00:53:07;19.00;99.90
6256;DHT22;3161;48.794;9.784;2022-07-29T00:55:35;19.00;99.90
6256;DHT22;3161;48.794;9.784;2022-07-29T00:58:03;19.00;99.90
6256;DHT22;3161;48.794;9.784;2022-07-29T01:00:30;18.90;99.90
6256;DHT22;3161;48.794;9.784;2022-07-29T01:02:58;18.90;99.90
6256;DHT22;3161;48.794;9.784;2022-07-29T01:05:27;18.90;99.90
6256;DHT22;3161;48.794;9.784;2022-07-29T01:07:57;18.90;99.90
6256;DHT22;3161;48.794;9.784;2022-07-29T01:10:25;18.90;99.90
6256;DHT22;3161;48.794;9.784;2022-07-29T01:12:54;18.90;99.90
6256;DHT22;3161;48.794;9.784;2022-07-29T01:15:22;18.90;99.90
6256;DHT22;3161;48.794;9.784;2022-07-29T01:17:57;18.90;99.90
6256;DHT22;3161;48.794;9.784;2022-07-29T01:31:25;18.90;99.90
6256;DHT22;3161;48.794;9.784;2022-07-29T01:33:55;18.90;99.90
6256;DHT22;3161;48.794;9.784;2022-07-29T01:36:35;19.00;99.90
6256;DHT22;3161;48.794;9.784;2022-07-29T01:39:05;19.00;99.90
6256;DHT22;3161;48.794;9.784;2022-07-29T01:41:35;19.00;99.90
6256;DHT22;3161;48.794;9.784;2022-07-29T01:44:10;19.00;99.90
6256;DHT22;3161;48.794;9.784;2022-07-29T01:46:36;19.10;99.90
6256;DHT22;3161;48.794;9.784;2022-07-29T01:49:08;19.10;99.90
6256;DHT22;3161;48.794;9.784;2022-07-29T01:51:43;19.10;99.90
6256;DHT22;3161;48.794;9.784;2022-07-29T01:57:01;19.10;99.90
6256;DHT22;3161;48.794;9.784;2022-07-29T01:59:30;19.10;99.90
6256;DHT22;3161;48.794;9.784;2022-07-29T02:01:58;19.10;99.90
6256;DHT22;3161;48.794;9.784;2022-07-29T02:04:27;19.10;99.90
6256;DHT22;3161;48.794;9.784;2022-07-29T02:06:59;19.10;99.90
6256;DHT22;3161;48.794;9.784;2022-07-29T02:09:27;19.10;99.90
6256;DHT22;3161;48.794;9.784;2022-07-29T02:11:56;19.10;99.90
6256;DHT22;3161;48.794;9.784;2022-07-29T02:14:25;19.00;99.90
6256;DHT22;3161;48.794;9.784;2022-07-29T02:16:56;19.00;99.90
6256;DHT22;3161;48.794;9.784;2022-07-29T02:19:26;19.00;99.90
6256;DHT22;3161;48.794;9.784;2022-07-29T02:21:55;19.00;99.90
6256;DHT22;3161;48.794;9.784;2022-07-29T02:24:25;19.00;99.90
6256;DHT22;3161;48.794;9.784;2022-07-29T02:26:55;19.00;99.90
6256;DHT22;3161;48.794;9.784;2022-07-29T02:29:24;19.00;99.90
6256;DHT22;3161;48.794;9.784;2022-07-29T02:31:53;18.90;99.90
6256;DHT22;3161;48.794;9.784;2022-07-29T02:34:23;18.90;99.90
6256;DHT22;3161;48.794;9.784;2022-07-29T02:36:52;18.90;99.90
6256;DHT22;3161;48.794;9.784;2022-07-29T02:39:22;18.80;99.90
6256;DHT22;3161;48.794;9.784;2022-07-29T02:41:55;18.80;99.90
6256;DHT22;3161;48.794;9.784;2022-07-29T02:44:24;18.80;99.90
6256;DHT22;3161;48.794;9.784;2022-07-29T02:47:02;18.70;99.90
6256;DHT22;3161;48.794;9.784;2022-07-29T02:52:12;18.60;99.90
6256;DHT22;3161;48.794;9.784;2022-07-29T02:54:47;18.60;99.90
6256;DHT22;3161;48.794;9.784;2022-07-29T02:57:19;18.50;99.90
6256;DHT22;3161;48.794;9.784;2022-07-29T02:59:43;18.50;99.90
6256;DHT22;3161;48.794;9.784;2022-07-29T03:02:14;18.60;99.90
6256;DHT22;3161;48.794;9.784;2022-07-29T03:04:43;18.50;99.90
6256;DHT22;3161;48.794;9.784;2022-07-29T03:07:13;18.50;99.90
6256;DHT22;3161;48.794;9.784;2022-07-29T03:09:42;18.50;99.90
6256;DHT22;3161;48.794;9.784;2022-07-29T03:12:10;18.50;99.90
6256;DHT22;3161;48.794;9.784;2022-07-29T03:14:39;18.40;99.90
6256;DHT22;3161;48.794;9.784;2022-07-29T03:17:08;18.40;99.90
6256;DHT22;3161;48.794;9.784;2022-07-29T03:19:36;18.40;99.90
6256;DHT22;3161;48.794;9.784;2022-07-29T03:22:04;18.40;99.90
6256;DHT22;3161;48.794;9.784;2022-07-29T03:24:35;18.40;99.90
6256;DHT22;3161;48.794;9.784;2022-07-29T03:27:03;18.40;99.90
6256;DHT22;3161;48.794;9.784;2022-07-29T03:29:32;18.30;99.90
6256;DHT22;3161;48.794;9.784;2022-07-29T03:32:01;18.30;99.90
6256;DHT22;3161;48.794;9.784;2022-07-29T03:34:28;18.30;99.90
6256;DHT22;3161;48.794;9.784;2022-07-29T03:36:56;18.30;99.90
6256;DHT22;3161;48.794;9.784;2022-07-29T03:39:25;18.30;99.90
6256;DHT22;3161;48.794;9.784;2022-07-29T03:41:56;18.30;99.90
6256;DHT22;3161;48.794;9.784;2022-07-29T03:44:25;18.30;99.90
6256;DHT22;3161;48.794;9.784;2022-07-29T03:46:55;18.20;99.90
6256;DHT22;3161;48.794;9.784;2022-07-29T03:49:24;18.20;99.90
6256;DHT22;3161;48.794;9.784;2022-07-29T03:51:51;18.20;99.90
6256;DHT22;3161;48.794;9.784;2022-07-29T03:54:20;18.20;99.90
6256;DHT22;3161;48.794;9.784;2022-07-29T03:56:48;18.10;99.90
6256;DHT22;3161;48.794;9.784;2022-07-29T03:59:18;18.10;99.90
6256;DHT22;3161;48.794;9.784;2022-07-29T04:01:48;18.10;99.90
6256;DHT22;3161;48.794;9.784;2022-07-29T04:04:16;18.10;99.90
6256;DHT22;3161;48.794;9.784;2022-07-29T04:06:45;18.00;99.90
6256;DHT22;3161;48.794;9.784;2022-07-29T04:09:13;18.00;99.90
6256;DHT22;3161;48.794;9.784;2022-07-29T04:11:41;18.00;99.90
6256;DHT22;3161;48.794;9.784;2022-07-29T04:14:09;17.90;99.90
6256;DHT22;3161;48.794;9.784;2022-07-29T04:16:37;17.90;99.90
6256;DHT22;3161;48.794;9.784;2022-07-29T04:19:04;18.00;99.90
6256;DHT22;3161;48.794;9.784;2022-07-29T04:21:37;18.00;99.90
6256;DHT22;3161;48.794;9.784;2022-07-29T04:24:05;18.00;99.90
6256;DHT22;3161;48.794;9.784;2022-07-29T04:26:33;18.00;99.90
6256;DHT22;3161;48.794;9.784;2022-07-29T04:29:01;18.00;99.90
6256;DHT22;3161;48.794;9.784;2022-07-29T04:31:29;18.00;99.90
6256;DHT22;3161;48.794;9.784;2022-07-29T04:33:58;18.00;99.90
6256;DHT22;3161;48.794;9.784;2022-07-29T04:36:25;18.00;99.90
6256;DHT22;3161;48.794;9.784;2022-07-29T04:38:53;18.10;99.90
6256;DHT22;3161;48.794;9.784;2022-07-29T04:41:20;18.10;99.90
6256;DHT22;3161;48.794;9.784;2022-07-29T04:43:48;18.10;99.90
6256;DHT22;3161;48.794;9.784;2022-07-29T04:46:16;18.10;99.90
6256;DHT22;3161;48.794;9.784;2022-07-29T04:48:45;18.10;99.90
6256;DHT22;3161;48.794;9.784;2022-07-29T04:51:15;18.10;99.90
6256;DHT22;3161;48.794;9.784;2022-07-29T04:53:43;18.10;99.90
6256;DHT22;3161;48.794;9.784;2022-07-29T04:56:10;18.10;99.90
6256;DHT22;3161;48.794;9.784;2022-07-29T04:58:38;18.10;99.90
6256;DHT22;3161;48.794;9.784;2022-07-29T05:01:06;18.10;99.90
6256;DHT22;3161;48.794;9.784;2022-07-29T05:03:33;18.00;99.90
6256;DHT22;3161;48.794;9.784;2022-07-29T05:06:01;18.00;99.90
6256;DHT22;3161;48.794;9.784;2022-07-29T05:08:28;18.00;99.90
6256;DHT22;3161;48.794;9.784;2022-07-29T05:10:56;17.90;99.90
6256;DHT22;3161;48.794;9.784;2022-07-29T05:13:23;18.00;99.90
6256;DHT22;3161;48.794;9.784;2022-07-29T05:15:51;17.90;99.90
6256;DHT22;3161;48.794;9.784;2022-07-29T05:18:18;18.00;99.90
6256;DHT22;3161;48.794;9.784;2022-07-29T05:20:46;17.90;99.90
6256;DHT22;3161;48.794;9.784;2022-07-29T05:23:14;18.00;99.90
6256;DHT22;3161;48.794;9.784;2022-07-29T05:25:42;18.00;99.90
6256;DHT22;3161;48.794;9.784;2022-07-29T05:28:09;18.10;99.90
6256;DHT22;3161;48.794;9.784;2022-07-29T05:30:37;18.10;99.90
6256;DHT22;3161;48.794;9.784;2022-07-29T05:33:05;18.20;99.90
6256;DHT22;3161;48.794;9.784;2022-07-29T05:35:32;18.30;99.90
6256;DHT22;3161;48.794;9.784;2022-07-29T05:38:01;18.40;99.90
6256;DHT22;3161;48.794;9.784;2022-07-29T05:40:28;18.50;99.90
6256;DHT22;3161;48.794;9.784;2022-07-29T05:42:56;18.50;99.90
6256;DHT22;3161;48.794;9.784;2022-07-29T05:45:24;18.60;99.90
6256;DHT22;3161;48.794;9.784;2022-07-29T05:47:51;18.70;99.90
6256;DHT22;3161;48.794;9.784;2022-07-29T05:50:19;18.70;99.90
6256;DHT22;3161;48.794;9.784;2022-07-29T05:52:46;18.80;99.90
6256;DHT22;3161;48.794;9.784;2022-07-29T05:55:14;18.80;99.90
6256;DHT22;3161;48.794;9.784;2022-07-29T05:57:41;18.90;99.90
6256;DHT22;3161;48.794;9.784;2022-07-29T06:00:11;18.90;99.90
6256;DHT22;3161;48.794;9.784;2022-07-29T06:02:39;19.00;99.90
6256;DHT22;3161;48.794;9.784;2022-07-29T06:05:07;19.00;99.90
6256;DHT22;3161;48.794;9.784;2022-07-29T06:07:34;19.10;99.90
6256;DHT22;3161;48.794;9.784;2022-07-29T06:10:02;19.10;99.90
6256;DHT22;3161;48.794;9.784;2022-07-29T06:12:30;19.10;99.90
6256;DHT22;3161;48.794;9.784;2022-07-29T06:14:57;19.20;99.90
6256;DHT22;3161;48.794;9.784;2022-07-29T06:17:25;19.30;99.90
6256;DHT22;3161;48.794;9.784;2022-07-29T06:19:52;19.30;99.90
6256;DHT22;3161;48.794;9.784;2022-07-29T06:22:20;19.40;99.90
6256;DHT22;3161;48.794;9.784;2022-07-29T06:24:47;19.50;99.90
6256;DHT22;3161;48.794;9.784;2022-07-29T06:27:15;19.70;99.90
6256;DHT22;3161;48.794;9.784;2022-07-29T06:29:43;19.80;99.90
6256;DHT22;3161;48.794;9.784;2022-07-29T06:32:10;19.90;99.90
6256;DHT22;3161;48.794;9.784;2022-07-29T06:34:38;20.00;99.90
6256;DHT22;3161;48.794;9.784;2022-07-29T06:37:08;20.10;99.90
6256;DHT22;3161;48.794;9.784;2022-07-29T06:39:36;20.20;99.90
6256;DHT22;3161;48.794;9.784;2022-07-29T06:42:04;20.30;99.90
6256;DHT22;3161;48.794;9.784;2022-07-29T06:44:32;20.40;99.90
6256;DHT22;3161;48.794;9.784;2022-07-29T06:47:00;20.50;99.90
6256;DHT22;3161;48.794;9.784;2022-07-29T06:49:28;20.60;99.90
6256;DHT22;3161;48.794;9.784;2022-07-29T06:51:56;20.60;99.90
6256;DHT22;3161;48.794;9.784;2022-07-29T06:54:24;20.60;99.90
6256;DHT22;3161;48.794;9.784;2022-07-29T06:56:52;20.60;99.90
6256;DHT22;3161;48.794;9.784;2022-07-29T06:59:19;20.70;99.90
6256;DHT22;3161;48.794;9.784;2022-07-29T07:01:47;20.70;99.90
6256;DHT22;3161;48.794;9.784;2022-07-29T07:04:14;20.80;99.90
6256;DHT22;3161;48.794;9.784;2022-07-29T07:06:42;20.90;99.90
6256;DHT22;3161;48.794;9.784;2022-07-29T07:09:09;21.10;99.90
6256;DHT22;3161;48.794;9.784;2022-07-29T07:11:37;21.30;99.90
6256;DHT22;3161;48.794;9.784;2022-07-29T07:14:04;21.50;99.90
6256;DHT22;3161;48.794;9.784;2022-07-29T07:16:32;21.70;99.90
6256;DHT22;3161;48.794;9.784;2022-07-29T07:19:00;21.80;99.90
6256;DHT22;3161;48.794;9.784;2022-07-29T07:21:28;21.90;99.90
6256;DHT22;3161;48.794;9.784;2022-07-29T07:23:56;22.10;99.90
6256;DHT22;3161;48.794;9.784;2022-07-29T07:26:24;22.30;99.90
6256;DHT22;3161;48.794;9.784;2022-07-29T07:28:51;22.60;99.90
6256;DHT22;3161;48.794;9.784;2022-07-29T07:31:19;22.70;99.90
6256;DHT22;3161;48.794;9.784;2022-07-29T07:33:47;22.90;99.90
6256;DHT22;3161;48.794;9.784;2022-07-29T07:36:14;23.10;99.90
6256;DHT22;3161;48.794;9.784;2022-07-29T07:38:42;23.20;99.90
6256;DHT22;3161;48.794;9.784;2022-07-29T07:41:09;23.40;99.90
6256;DHT22;3161;48.794;9.784;2022-07-29T07:43:37;23.60;99.90
6256;DHT22;3161;48.794;9.784;2022-07-29T07:46:05;23.80;99.90
6256;DHT22;3161;48.794;9.784;2022-07-29T07:48:32;24.00;99.90
6256;DHT22;3161;48.794;9.784;2022-07-29T07:51:01;24.10;99.90
6256;DHT22;3161;48.794;9.784;2022-07-29T07:53:29;24.30;99.90
6256;DHT22;3161;48.794;9.784;2022-07-29T07:55:57;24.40;99.90
6256;DHT22;3161;48.794;9.784;2022-07-29T07:58:24;24.50;99.90
6256;DHT22;3161;48.794;9.784;2022-07-29T08:00:52;24.70;99.90
6256;DHT22;3161;48.794;9.784;2022-07-29T08:03:19;24.80;99.90
6256;DHT22;3161;48.794;9.784;2022-07-29T08:05:47;25.00;99.90
6256;DHT22;3161;48.794;9.784;2022-07-29T08:08:16;25.20;99.90
6256;DHT22;3161;48.794;9.784;2022-07-29T08:10:44;25.40;99.90
6256;DHT22;3161;48.794;9.784;2022-07-29T08:13:24;25.40;99.90
6256;DHT22;3161;48.794;9.784;2022-07-29T08:15:55;25.40;99.90
6256;DHT22;3161;48.794;9.784;2022-07-29T08:18:29;25.40;99.90
6256;DHT22;3161;48.794;9.784;2022-07-29T08:20:58;25.40;99.90
6256;DHT22;3161;48.794;9.784;2022-07-29T08:23:26;25.40;99.90
6256;DHT22;3161;48.794;9.784;2022-07-29T08:25:58;25.40;99.90
6256;DHT22;3161;48.794;9.784;2022-07-29T08:28:25;25.60;99.90
6256;DHT22;3161;48.794;9.784;2022-07-29T08:30:53;25.70;99.90
6256;DHT22;3161;48.794;9.784;2022-07-29T08:33:20;25.80;99.90
6256;DHT22;3161;48.794;9.784;2022-07-29T08:35:48;25.90;99.90
6256;DHT22;3161;48.794;9.784;2022-07-29T08:38:16;25.90;99.90
6256;DHT22;3161;48.794;9.784;2022-07-29T08:40:44;26.00;99.90
6256;DHT22;3161;48.794;9.784;2022-07-29T08:43:12;26.10;99.90
6256;DHT22;3161;48.794;9.784;2022-07-29T08:45:49;26.20;99.90
6256;DHT22;3161;48.794;9.784;2022-07-29T08:48:19;26.30;99.90
6256;DHT22;3161;48.794;9.784;2022-07-29T08:50:48;26.50;99.90
6256;DHT22;3161;48.794;9.784;2022-07-29T08:53:17;26.50;99.90
6256;DHT22;3161;48.794;9.784;2022-07-29T08:55:47;26.40;99.90
6256;DHT22;3161;48.794;9.784;2022-07-29T08:58:15;26.50;99.90
6256;DHT22;3161;48.794;9.784;2022-07-29T09:00:45;26.50;99.90
6256;DHT22;3161;48.794;9.784;2022-07-29T09:03:19;26.70;99.90
6256;DHT22;3161;48.794;9.784;2022-07-29T09:05:45;26.70;99.90
6256;DHT22;3161;48.794;9.784;2022-07-29T09:08:14;26.80;99.90
6256;DHT22;3161;48.794;9.784;2022-07-29T09:10:43;26.80;99.90
6256;DHT22;3161;48.794;9.784;2022-07-29T09:13:11;26.90;99.90
6256;DHT22;3161;48.794;9.784;2022-07-29T09:18:42;27.00;99.90
6256;DHT22;3161;48.794;9.784;2022-07-29T09:21:12;27.00;99.90
6256;DHT22;3161;48.794;9.784;2022-07-29T09:24:12;27.00;99.90
6256;DHT22;3161;48.794;9.784;2022-07-29T09:26:42;27.10;99.90
6256;DHT22;3161;48.794;9.784;2022-07-29T09:29:13;27.20;99.90
6256;DHT22;3161;48.794;9.784;2022-07-29T09:31:44;27.20;99.90
6256;DHT22;3161;48.794;9.784;2022-07-29T09:34:21;27.20;99.90
6256;DHT22;3161;48.794;9.784;2022-07-29T09:36:44;27.20;99.90
6256;DHT22;3161;48.794;9.784;2022-07-29T09:39:13;27.20;99.90
6256;DHT22;3161;48.794;9.784;2022-07-29T09:41:52;27.20;99.90
6256;DHT22;3161;48.794;9.784;2022-07-29T09:44:20;27.20;99.90
6256;DHT22;3161;48.794;9.784;2022-07-29T09:47:02;27.10;99.90
6256;DHT22;3161;48.794;9.784;2022-07-29T09:49:36;27.20;99.90
6256;DHT22;3161;48.794;9.784;2022-07-29T09:52:08;27.20;99.90
6256;DHT22;3161;48.794;9.784;2022-07-29T09:54:37;27.20;99.90
6256;DHT22;3161;48.794;9.784;2022-07-29T09:57:07;27.20;99.90
6256;DHT22;3161;48.794;9.784;2022-07-29T09:59:36;27.30;99.90
6256;DHT22;3161;48.794;9.784;2022-07-29T10:02:14;27.30;99.90
6256;DHT22;3161;48.794;9.784;2022-07-29T10:04:43;27.40;99.90
6256;DHT22;3161;48.794;9.784;2022-07-29T10:07:10;27.50;99.90
6256;DHT22;3161;48.794;9.784;2022-07-29T10:09:38;27.60;99.90
6256;DHT22;3161;48.794;9.784;2022-07-29T10:12:10;27.70;99.90
6256;DHT22;3161;48.794;9.784;2022-07-29T10:14:40;27.70;99.90
6256;DHT22;3161;48.794;9.784;2022-07-29T10:17:09;27.80;99.90
6256;DHT22;3161;48.794;9.784;2022-07-29T10:19:38;27.80;99.90
6256;DHT22;3161;48.794;9.784;2022-07-29T10:22:08;27.90;99.90
6256;DHT22;3161;48.794;9.784;2022-07-29T10:24:37;28.00;99.90
6256;DHT22;3161;48.794;9.784;2022-07-29T10:27:07;28.00;99.90
6256;DHT22;3161;48.794;9.784;2022-07-29T10:29:35;28.10;99.90
6256;DHT22;3161;48.794;9.784;2022-07-29T10:43:36;28.50;99.90
6256;DHT22;3161;48.794;9.784;2022-07-29T10:46:05;28.60;99.90
6256;DHT22;3161;48.794;9.784;2022-07-29T10:48:33;28.60;99.90
6256;DHT22;3161;48.794;9.784;2022-07-29T10:51:03;28.60;99.90
6256;DHT22;3161;48.794;9.784;2022-07-29T10:53:51;28.70;99.90
6256;DHT22;3161;48.794;9.784;2022-07-29T10:56:27;28.80;99.90
6256;DHT22;3161;48.794;9.784;2022-07-29T11:01:46;28.90;99.90
6256;DHT22;3161;48.794;9.784;2022-07-29T11:04:16;29.00;99.90
6256;DHT22;3161;48.794;9.784;2022-07-29T11:07:06;29.00;99.90
6256;DHT22;3161;48.794;9.784;2022-07-29T11:09:37;29.00;99.90
6256;DHT22;3161;48.794;9.784;2022-07-29T11:15:00;29.10;99.90
6256;DHT22;3161;48.794;9.784;2022-07-29T11:17:29;29.00;99.90
6256;DHT22;3161;48.794;9.784;2022-07-29T11:20:35;29.00;99.90
6256;DHT22;3161;48.794;9.784;2022-07-29T11:22:59;28.90;99.90
6256;DHT22;3161;48.794;9.784;2022-07-29T11:25:27;28.60;99.90
6256;DHT22;3161;48.794;9.784;2022-07-29T11:28:08;28.40;99.90
6256;DHT22;3161;48.794;9.784;2022-07-29T11:30:49;28.40;99.90
6256;DHT22;3161;48.794;9.784;2022-07-29T11:33:31;28.30;99.90
6256;DHT22;3161;48.794;9.784;2022-07-29T11:36:10;28.30;99.90
6256;DHT22;3161;48.794;9.784;2022-07-29T11:38:39;28.30;99.90
6256;DHT22;3161;48.794;9.784;2022-07-29T11:41:23;28.30;99.90
6256;DHT22;3161;48.794;9.784;2022-07-29T11:43:53;28.20;99.90
6256;DHT22;3161;48.794;9.784;2022-07-29T11:46:49;28.10;99.90
6256;DHT22;3161;48.794;9.784;2022-07-29T11:49:25;28.00;99.90
6256;DHT22;3161;48.794;9.784;2022-07-29T11:51:57;28.00;99.90
6256;DHT22;3161;48.794;9.784;2022-07-29T11:54:31;27.90;99.90
6256;DHT22;3161;48.794;9.784;2022-07-29T11:57:04;27.80;99.90
6256;DHT22;3161;48.794;9.784;2022-07-29T11:59:43;27.70;99.90
6256;DHT22;3161;48.794;9.784;2022-07-29T12:02:12;27.60;99.90
6256;DHT22;3161;48.794;9.784;2022-07-29T12:04:50;27.40;99.90
6256;DHT22;3161;48.794;9.784;2022-07-29T12:07:40;27.40;99.90
6256;DHT22;3161;48.794;9.784;2022-07-29T12:09:51;27.20;99.90
6256;DHT22;3161;48.794;9.784;2022-07-29T12:12:20;27.20;99.90
6256;DHT22;3161;48.794;9.784;2022-07-29T12:14:49;27.20;99.90
6256;DHT22;3161;48.794;9.784;2022-07-29T12:17:34;27.10;99.90
6256;DHT22;3161;48.794;9.784;2022-07-29T12:20:04;27.00;99.90
6256;DHT22;3161;48.794;9.784;2022-07-29T12:22:35;26.90;99.90
6256;DHT22;3161;48.794;9.784;2022-07-29T12:25:09;26.80;99.90
6256;DHT22;3161;48.794;9.784;2022-07-29T12:27:38;26.80;99.90
6256;DHT22;3161;48.794;9.784;2022-07-29T12:30:08;26.70;99.90
6256;DHT22;3161;48.794;9.784;2022-07-29T12:32:38;26.70;99.90
6256;DHT22;3161;48.794;9.784;2022-07-29T12:35:08;26.60;99.90
6256;DHT22;3161;48.794;9.784;2022-07-29T12:37:37;26.60;99.90
6256;DHT22;3161;48.794;9.784;2022-07-29T12:40:06;26.60;99.90
6256;DHT22;3161;48.794;9.784;2022-07-29T12:42:35;26.50;99.90
6256;DHT22;3161;48.794;9.784;2022-07-29T12:45:04;26.40;99.90
6256;DHT22;3161;48.794;9.784;2022-07-29T12:47:33;26.30;99.90
6256;DHT22;3161;48.794;9.784;2022-07-29T12:50:12;26.30;99.90
6256;DHT22;3161;48.794;9.784;2022-07-29T12:52:41;26.30;99.90
6256;DHT22;3161;48.794;9.784;2022-07-29T12:55:08;26.30;99.90
6256;DHT22;3161;48.794;9.784;2022-07-29T12:57:50;26.20;99.90
6256;DHT22;3161;48.794;9.784;2022-07-29T13:00:24;26.10;99.90
6256;DHT22;3161;48.794;9.784;2022-07-29T13:02:59;26.00;99.90
6256;DHT22;3161;48.794;9.784;2022-07-29T13:05:41;25.90;99.90
6256;DHT22;3161;48.794;9.784;2022-07-29T13:08:13;25.80;99.90
6256;DHT22;3161;48.794;9.784;2022-07-29T13:10:42;25.70;99.90
6256;DHT22;3161;48.794;9.784;2022-07-29T13:13:14;25.60;99.90
6256;DHT22;3161;48.794;9.784;2022-07-29T13:15:45;25.50;99.90
6256;DHT22;3161;48.794;9.784;2022-07-29T13:18:30;25.50;99.90
6256;DHT22;3161;48.794;9.784;2022-07-29T13:21:13;25.50;99.90
6256;DHT22;3161;48.794;9.784;2022-07-29T13:23:41;25.50;99.90
6256;DHT22;3161;48.794;9.784;2022-07-29T13:26:10;25.50;99.90
6256;DHT22;3161;48.794;9.784;2022-07-29T13:28:38;25.50;99.90
6256;DHT22;3161;48.794;9.784;2022-07-29T13:31:06;25.50;99.90
6256;DHT22;3161;48.794;9.784;2022-07-29T13:33:34;25.40;99.90
6256;DHT22;3161;48.794;9.784;2022-07-29T13:36:01;25.30;99.90
6256;DHT22;3161;48.794;9.784;2022-07-29T13:38:29;25.30;99.90
6256;DHT22;3161;48.794;9.784;2022-07-29T13:40:57;25.20;99.90
6256;DHT22;3161;48.794;9.784;2022-07-29T13:43:24;25.10;99.90
6256;DHT22;3161;48.794;9.784;2022-07-29T13:45:52;25.00;99.90
6256;DHT22;3161;48.794;9.784;2022-07-29T13:48:20;24.90;99.90
6256;DHT22;3161;48.794;9.784;2022-07-29T13:50:47;24.90;99.90
6256;DHT22;3161;48.794;9.784;2022-07-29T13:53:15;24.80;99.90
6256;DHT22;3161;48.794;9.784;2022-07-29T13:55:43;24.90;99.90
6256;DHT22;3161;48.794;9.784;2022-07-29T13:58:10;25.00;99.90
6256;DHT22;3161;48.794;9.784;2022-07-29T14:00:38;25.00;99.90
6256;DHT22;3161;48.794;9.784;2022-07-29T14:03:05;25.00;99.90
6256;DHT22;3161;48.794;9.784;2022-07-29T14:05:33;25.00;99.90
6256;DHT22;3161;48.794;9.784;2022-07-29T14:08:00;25.00;99.90
6256;DHT22;3161;48.794;9.784;2022-07-29T14:10:47;24.90;99.90
6256;DHT22;3161;48.794;9.784;2022-07-29T14:13:15;24.90;99.90
6256;DHT22;3161;48.794;9.784;2022-07-29T14:15:42;24.80;99.90
6256;DHT22;3161;48.794;9.784;2022-07-29T14:18:10;24.70;99.90
6256;DHT22;3161;48.794;9.784;2022-07-29T14:20:37;24.60;99.90
6256;DHT22;3161;48.794;9.784;2022-07-29T14:23:05;24.50;99.90
6256;DHT22;3161;48.794;9.784;2022-07-29T14:25:32;24.50;99.90
6256;DHT22;3161;48.794;9.784;2022-07-29T14:28:00;24.40;99.90
6256;DHT22;3161;48.794;9.784;2022-07-29T14:30:27;24.40;99.90
6256;DHT22;3161;48.794;9.784;2022-07-29T14:32:55;24.40;99.90
6256;DHT22;3161;48.794;9.784;2022-07-29T14:35:23;24.30;99.90
6256;DHT22;3161;48.794;9.784;2022-07-29T14:37:50;24.30;99.90
6256;DHT22;3161;48.794;9.784;2022-07-29T14:40:18;24.30;99.90
6256;DHT22;3161;48.794;9.784;2022-07-29T14:42:45;24.30;99.90
6256;DHT22;3161;48.794;9.784;2022-07-29T14:45:13;24.20;99.90
6256;DHT22;3161;48.794;9.784;2022-07-29T14:47:40;24.20;99.90
6256;DHT22;3161;48.794;9.784;2022-07-29T14:50:09;24.10;99.90
6256;DHT22;3161;48.794;9.784;2022-07-29T14:52:37;24.10;99.90
6256;DHT22;3161;48.794;9.784;2022-07-29T14:55:05;24.10;99.90
6256;DHT22;3161;48.794;9.784;2022-07-29T14:57:33;24.10;99.90
6256;DHT22;3161;48.794;9.784;2022-07-29T15:00:02;24.00;99.90
6256;DHT22;3161;48.794;9.784;2022-07-29T15:02:29;24.00;99.90
6256;DHT22;3161;48.794;9.784;2022-07-29T15:04:57;23.90;99.90
6256;DHT22;3161;48.794;9.784;2022-07-29T15:07:24;23.90;99.90
6256;DHT22;3161;48.794;9.784;2022-07-29T15:09:52;23.80;99.90
6256;DHT22;3161;48.794;9.784;2022-07-29T15:12:20;23.80;99.90
6256;DHT22;3161;48.794;9.784;2022-07-29T15:14:47;23.80;99.90
6256;DHT22;3161;48.794;9.784;2022-07-29T15:17:15;23.80;99.90
6256;DHT22;3161;48.794;9.784;2022-07-29T15:19:42;23.80;99.90
6256;DHT22;3161;48.794;9.784;2022-07-29T15:22:10;23.80;99.90
6256;DHT22;3161;48.794;9.784;2022-07-29T15:24:37;23.80;99.90
6256;DHT22;3161;48.794;9.784;2022-07-29T15:27:05;23.80;99.90
6256;DHT22;3161;48.794;9.784;2022-07-29T15:29:32;23.70;99.90
6256;DHT22;3161;48.794;9.784;2022-07-29T15:32:00;23.70;99.90
6256;DHT22;3161;48.794;9.784;2022-07-29T15:34:28;23.80;99.90
6256;DHT22;3161;48.794;9.784;2022-07-29T15:36:55;23.80;99.90
6256;DHT22;3161;48.794;9.784;2022-07-29T15:39:22;23.80;99.90
6256;DHT22;3161;48.794;9.784;2022-07-29T15:41:50;23.80;99.90
6256;DHT22;3161;48.794;9.784;2022-07-29T15:44:19;23.80;99.90
6256;DHT22;3161;48.794;9.784;2022-07-29T15:46:47;23.80;99.90
6256;DHT22;3161;48.794;9.784;2022-07-29T15:49:34;23.80;99.90
6256;DHT22;3161;48.794;9.784;2022-07-29T15:52:06;23.80;99.90
6256;DHT22;3161;48.794;9.784;2022-07-29T15:54:35;23.80;99.90
6256;DHT22;3161;48.794;9.784;2022-07-29T15:57:05;23.80;99.90
6256;DHT22;3161;48.794;9.784;2022-07-29T15:59:33;23.80;99.90
6256;DHT22;3161;48.794;9.784;2022-07-29T16:02:00;23.80;99.90
6256;DHT22;3161;48.794;9.784;2022-07-29T16:04:28;23.80;99.90
6256;DHT22;3161;48.794;9.784;2022-07-29T16:06:56;23.70;99.90
6256;DHT22;3161;48.794;9.784;2022-07-29T16:09:23;23.70;99.90
6256;DHT22;3161;48.794;9.784;2022-07-29T16:11:51;23.70;99.90
6256;DHT22;3161;48.794;9.784;2022-07-29T16:14:19;23.70;99.90
6256;DHT22;3161;48.794;9.784;2022-07-29T16:16:47;23.70;99.90
6256;DHT22;3161;48.794;9.784;2022-07-29T16:19:15;23.70;99.90
6256;DHT22;3161;48.794;9.784;2022-07-29T16:21:42;23.60;99.90
6256;DHT22;3161;48.794;9.784;2022-07-29T16:24:10;23.60;99.90
6256;DHT22;3161;48.794;9.784;2022-07-29T16:26:37;23.60;99.90
6256;DHT22;3161;48.794;9.784;2022-07-29T16:29:05;23.60;99.90
6256;DHT22;3161;48.794;9.784;2022-07-29T16:31:32;23.60;99.90
6256;DHT22;3161;48.794;9.784;2022-07-29T16:34:00;23.60;99.90
6256;DHT22;3161;48.794;9.784;2022-07-29T16:36:28;23.60;99.90
6256;DHT22;3161;48.794;9.784;2022-07-29T16:38:55;23.70;99.90
6256;DHT22;3161;48.794;9.784;2022-07-29T16:41:23;23.70;99.90
6256;DHT22;3161;48.794;9.784;2022-07-29T16:43:50;23.70;99.90
6256;DHT22;3161;48.794;9.784;2022-07-29T16:46:18;23.70;99.90
6256;DHT22;3161;48.794;9.784;2022-07-29T16:48:47;23.70;99.90
6256;DHT22;3161;48.794;9.784;2022-07-29T16:51:15;23.70;99.90
6256;DHT22;3161;48.794;9.784;2022-07-29T16:53:43;23.70;99.90